createdAt,value
2023-06-17T00:00:31.192Z,24.76
2023-06-17T00:01:31.242Z,24.76
2023-06-17T00:02:32.342Z,24.76
2023-06-17T00:03:32.484Z,24.76
2023-06-17T00:04:32.418Z,24.77
2023-06-17T00:05:32.473Z,24.75
2023-06-17T00:06:32.496Z,24.76
2023-06-17T00:07:32.552Z,24.76
2023-06-17T00:08:32.595Z,24.75
2023-06-17T00:09:32.639Z,24.75
2023-06-17T00:10:32.737Z,24.75
2023-06-17T00:11:32.732Z,24.75
2023-06-17T00:12:32.769Z,24.74
2023-06-17T00:13:32.813Z,24.74
2023-06-17T00:14:31.880Z,24.75
2023-06-17T00:15:32.934Z,24.73
2023-06-17T00:16:32.973Z,24.74
2023-06-17T00:17:33.062Z,24.74
2023-06-17T00:18:33.064Z,24.74
2023-06-17T00:19:33.122Z,24.73
2023-06-17T00:20:32.164Z,24.74
2023-06-17T00:21:33.240Z,24.74
2023-06-17T00:22:33.284Z,24.74
2023-06-17T00:23:32.357Z,24.74
2023-06-17T00:24:33.423Z,24.73
2023-06-17T00:25:33.441Z,24.73
2023-06-17T00:26:33.524Z,24.73
2023-06-17T00:27:33.553Z,24.72
2023-06-17T00:28:33.643Z,24.72
2023-06-17T00:29:32.664Z,24.72
2023-06-17T00:30:32.728Z,24.71
2023-06-17T00:31:33.774Z,24.72
2023-06-17T00:32:33.922Z,24.71
2023-06-17T00:33:33.907Z,24.71
2023-06-17T00:34:34.018Z,24.71
2023-06-17T00:35:34.022Z,24.70
2023-06-17T00:36:34.083Z,24.70
2023-06-17T00:37:34.131Z,24.70
2023-06-17T00:38:34.199Z,24.71
2023-06-17T00:39:34.249Z,24.70
2023-06-17T00:40:34.310Z,24.70
2023-06-17T00:41:34.342Z,24.69
2023-06-17T00:42:34.447Z,24.69
2023-06-17T00:43:34.474Z,24.69
2023-06-17T00:44:34.524Z,24.69
2023-06-17T00:45:34.606Z,24.69
2023-06-17T00:46:34.659Z,24.69
2023-06-17T00:47:34.867Z,24.69
2023-06-17T00:48:34.772Z,24.69
2023-06-17T00:49:34.813Z,24.69
2023-06-17T00:50:34.872Z,24.68
2023-06-17T00:51:34.935Z,24.69
2023-06-17T00:52:41.893Z,24.68
2023-06-17T00:53:34.993Z,24.67
2023-06-17T00:54:34.988Z,24.67
2023-06-17T00:55:34.985Z,24.67
2023-06-17T00:56:34.963Z,24.67
2023-06-17T00:57:34.973Z,24.67
2023-06-17T00:58:33.980Z,24.67
2023-06-17T00:59:34.965Z,24.67
2023-06-17T01:00:34.953Z,24.66
2023-06-17T01:01:34.942Z,24.65
2023-06-17T01:02:34.996Z,24.66
2023-06-17T01:03:35.045Z,24.66
2023-06-17T01:04:34.927Z,24.65
2023-06-17T01:05:34.929Z,24.66
2023-06-17T01:06:34.932Z,24.66
2023-06-17T01:07:34.931Z,24.66
2023-06-17T01:08:34.884Z,24.65
2023-06-17T01:09:34.888Z,24.65
2023-06-17T01:10:34.879Z,24.64
2023-06-17T01:11:34.864Z,24.64
2023-06-17T01:12:34.863Z,24.64
2023-06-17T01:13:34.858Z,24.63
2023-06-17T01:14:34.894Z,24.63
2023-06-17T01:15:34.835Z,24.62
2023-06-17T01:16:34.977Z,24.63
2023-06-17T01:17:33.988Z,24.63
2023-06-17T01:18:35.004Z,24.63
2023-06-17T01:19:35.058Z,24.63
2023-06-17T01:20:34.161Z,24.63
2023-06-17T01:21:35.187Z,24.62
2023-06-17T01:22:35.240Z,24.62
2023-06-17T01:23:35.300Z,24.61
2023-06-17T01:24:35.423Z,24.62
2023-06-17T01:25:35.457Z,24.62
2023-06-17T01:26:35.496Z,24.62
2023-06-17T01:27:35.586Z,24.61
2023-06-17T01:28:35.587Z,24.61
2023-06-17T01:29:35.630Z,24.62
2023-06-17T01:30:35.711Z,24.61
2023-06-17T01:31:35.767Z,24.61
2023-06-17T01:32:35.799Z,24.60
2023-06-17T01:33:34.792Z,24.60
2023-06-17T01:34:35.812Z,24.60
2023-06-17T01:35:35.872Z,24.60
2023-06-17T01:36:35.881Z,24.59
2023-06-17T01:37:34.940Z,24.60
2023-06-17T01:38:35.973Z,24.59
2023-06-17T01:39:36.056Z,24.59
2023-06-17T01:40:36.099Z,24.59
2023-06-17T01:41:35.164Z,24.59
2023-06-17T01:42:36.240Z,24.59
2023-06-17T01:43:36.298Z,24.59
2023-06-17T01:44:36.337Z,24.58
2023-06-17T01:45:36.406Z,24.59
2023-06-17T01:46:36.510Z,24.59
2023-06-17T01:47:36.544Z,24.59
2023-06-17T01:48:35.627Z,24.59
2023-06-17T01:49:36.653Z,24.58
2023-06-17T01:50:36.698Z,24.58
2023-06-17T01:51:35.727Z,24.58
2023-06-17T01:52:36.758Z,24.59
2023-06-17T01:53:36.789Z,24.59
2023-06-17T01:54:36.844Z,24.59
2023-06-17T01:55:36.876Z,24.58
2023-06-17T01:56:36.917Z,24.58
2023-06-17T01:57:36.952Z,24.58
2023-06-17T01:58:37.038Z,24.58
2023-06-17T01:59:37.125Z,24.58
2023-06-17T02:00:36.150Z,24.58
2023-06-17T02:01:37.225Z,24.57
2023-06-17T02:02:37.340Z,24.57
2023-06-17T02:03:36.417Z,24.57
2023-06-17T02:04:37.384Z,24.56
2023-06-17T02:05:37.465Z,24.57
2023-06-17T02:06:37.516Z,24.57
2023-06-17T02:07:37.583Z,24.57
2023-06-17T02:08:37.626Z,24.57
2023-06-17T02:09:37.696Z,24.57
2023-06-17T02:10:37.741Z,24.56
2023-06-17T02:11:37.786Z,24.57
2023-06-17T02:12:37.850Z,24.56
2023-06-17T02:13:37.970Z,24.56
2023-06-17T02:14:37.938Z,24.56
2023-06-17T02:15:37.018Z,24.56
2023-06-17T02:16:38.166Z,24.56
2023-06-17T02:17:38.218Z,24.56
2023-06-17T02:18:38.186Z,24.56
2023-06-17T02:19:38.209Z,24.56
2023-06-17T02:20:37.274Z,24.56
2023-06-17T02:21:38.337Z,24.56
2023-06-17T02:22:38.362Z,24.56
2023-06-17T02:23:38.406Z,24.55
2023-06-17T02:24:38.461Z,24.55
2023-06-17T02:25:37.487Z,24.56
2023-06-17T02:26:37.501Z,24.55
2023-06-17T02:27:38.503Z,24.55
2023-06-17T02:28:38.548Z,24.54
2023-06-17T02:29:37.545Z,24.55
2023-06-17T02:30:37.606Z,24.55
2023-06-17T02:31:38.743Z,24.53
2023-06-17T02:32:38.768Z,24.55
2023-06-17T02:33:38.782Z,24.54
2023-06-17T02:34:38.862Z,24.54
2023-06-17T02:35:38.901Z,24.54
2023-06-17T02:36:38.969Z,24.53
2023-06-17T02:37:39.026Z,24.53
2023-06-17T02:38:39.093Z,24.53
2023-06-17T02:39:39.149Z,24.53
2023-06-17T02:40:39.213Z,24.53
2023-06-17T02:41:39.262Z,24.53
2023-06-17T02:42:38.324Z,24.52
2023-06-17T02:43:39.406Z,24.52
2023-06-17T02:44:39.459Z,24.52
2023-06-17T02:45:38.500Z,24.51
2023-06-17T02:46:39.614Z,24.52
2023-06-17T02:47:39.693Z,24.52
2023-06-17T02:48:39.692Z,24.51
2023-06-17T02:49:39.800Z,24.51
2023-06-17T02:50:38.825Z,24.50
2023-06-17T02:51:39.819Z,24.50
2023-06-17T02:52:39.857Z,24.51
2023-06-17T02:53:39.907Z,24.50
2023-06-17T02:54:39.955Z,24.51
2023-06-17T02:55:39.988Z,24.50
2023-06-17T02:56:40.066Z,24.50
2023-06-17T02:57:40.101Z,24.50
2023-06-17T02:58:39.116Z,24.50
2023-06-17T02:59:39.124Z,24.50
2023-06-17T03:00:40.221Z,24.50
2023-06-17T03:01:40.191Z,24.50
2023-06-17T03:02:40.326Z,24.50
2023-06-17T03:03:40.243Z,24.51
2023-06-17T03:04:39.288Z,24.49
2023-06-17T03:05:40.338Z,24.49
2023-06-17T03:06:40.393Z,24.49
2023-06-17T03:07:40.394Z,24.48
2023-06-17T03:08:40.438Z,24.48
2023-06-17T03:09:40.452Z,24.48
2023-06-17T03:10:40.469Z,24.48
2023-06-17T03:11:40.472Z,24.48
2023-06-17T03:12:40.474Z,24.47
2023-06-17T03:13:40.469Z,24.47
2023-06-17T03:14:40.503Z,24.47
2023-06-17T03:15:39.490Z,24.47
2023-06-17T03:16:40.484Z,24.47
2023-06-17T03:17:39.545Z,24.47
2023-06-17T03:18:39.500Z,24.47
2023-06-17T03:19:40.525Z,24.47
2023-06-17T03:20:40.525Z,24.47
2023-06-17T03:21:41.517Z,24.46
2023-06-17T03:22:40.573Z,24.46
2023-06-17T03:23:40.575Z,24.47
2023-06-17T03:24:40.624Z,24.46
2023-06-17T03:25:40.609Z,24.46
2023-06-17T03:26:39.676Z,24.46
2023-06-17T03:27:40.668Z,24.46
2023-06-17T03:28:39.671Z,24.46
2023-06-17T03:29:40.681Z,24.46
2023-06-17T03:30:40.738Z,24.46
2023-06-17T03:31:39.708Z,24.46
2023-06-17T03:32:40.755Z,24.46
2023-06-17T03:33:40.756Z,24.46
2023-06-17T03:34:40.754Z,24.46
2023-06-17T03:35:40.769Z,24.46
2023-06-17T03:36:40.771Z,24.46
2023-06-17T03:37:40.801Z,24.45
2023-06-17T03:38:40.830Z,24.46
2023-06-17T03:39:40.871Z,24.45
2023-06-17T03:40:40.880Z,24.46
2023-06-17T03:41:40.881Z,24.46
2023-06-17T03:42:40.932Z,24.44
2023-06-17T03:43:40.941Z,24.44
2023-06-17T03:44:40.969Z,24.43
2023-06-17T03:45:40.978Z,24.44
2023-06-17T03:46:40.958Z,24.43
2023-06-17T03:47:40.978Z,24.44
2023-06-17T03:48:40.946Z,24.44
2023-06-17T03:49:40.965Z,24.43
2023-06-17T03:50:39.938Z,24.43
2023-06-17T03:51:39.940Z,24.43
2023-06-17T03:52:40.958Z,24.43
2023-06-17T03:53:41.041Z,24.43
2023-06-17T03:54:40.970Z,24.42
2023-06-17T03:55:41.003Z,24.43
2023-06-17T03:56:40.939Z,24.42
2023-06-17T03:57:40.974Z,24.43
2023-06-17T03:58:40.945Z,24.44
2023-06-17T03:59:40.980Z,24.43
2023-06-17T04:00:40.947Z,24.43
2023-06-17T04:01:39.985Z,24.43
2023-06-17T04:02:41.077Z,24.42
2023-06-17T04:03:41.045Z,24.42
2023-06-17T04:04:41.126Z,24.42
2023-06-17T04:05:40.936Z,24.43
2023-06-17T04:06:40.968Z,24.42
2023-06-17T04:07:40.957Z,24.42
2023-06-17T04:08:39.952Z,24.42
2023-06-17T04:09:43.842Z,24.41
2023-06-17T04:10:40.972Z,24.40
2023-06-17T04:11:40.936Z,24.41
2023-06-17T04:12:39.950Z,24.41
2023-06-17T04:13:40.926Z,24.41
2023-06-17T04:14:40.908Z,24.40
2023-06-17T04:15:40.905Z,24.40
2023-06-17T04:16:40.899Z,24.41
2023-06-17T04:17:40.925Z,24.39
2023-06-17T04:18:40.901Z,24.40
2023-06-17T04:19:40.907Z,24.41
2023-06-17T04:20:40.877Z,24.41
2023-06-17T04:21:40.858Z,24.39
2023-06-17T04:22:40.859Z,24.40
2023-06-17T04:23:40.869Z,24.40
2023-06-17T04:24:40.929Z,24.40
2023-06-17T04:25:40.864Z,24.40
2023-06-17T04:26:40.870Z,24.40
2023-06-17T04:27:40.841Z,24.40
2023-06-17T04:28:40.819Z,24.39
2023-06-17T04:29:40.829Z,24.40
2023-06-17T04:30:40.809Z,24.40
2023-06-17T04:31:40.894Z,24.40
2023-06-17T04:32:40.922Z,24.40
2023-06-17T04:33:40.794Z,24.40
2023-06-17T04:34:40.790Z,24.40
2023-06-17T04:35:40.783Z,24.40
2023-06-17T04:36:40.766Z,24.40
2023-06-17T04:37:40.785Z,24.39
2023-06-17T04:38:39.989Z,24.40
2023-06-17T04:39:40.762Z,24.40
2023-06-17T04:40:40.757Z,24.40
2023-06-17T04:41:39.738Z,24.39
2023-06-17T04:42:40.753Z,24.39
2023-06-17T04:43:40.737Z,24.39
2023-06-17T04:44:40.712Z,24.40
2023-06-17T04:45:40.718Z,24.40
2023-06-17T04:46:40.740Z,24.40
2023-06-17T04:47:39.773Z,24.40
2023-06-17T04:48:40.691Z,24.40
2023-06-17T04:49:39.688Z,24.40
2023-06-17T04:50:40.679Z,24.40
2023-06-17T04:51:40.675Z,24.40
2023-06-17T04:52:40.665Z,24.39
2023-06-17T04:53:39.653Z,24.39
2023-06-17T04:54:40.648Z,24.39
2023-06-17T04:55:39.636Z,24.39
2023-06-17T04:56:40.629Z,24.38
2023-06-17T04:57:40.633Z,24.39
2023-06-17T04:58:40.645Z,24.39
2023-06-17T04:59:40.616Z,24.39
2023-06-17T05:00:39.673Z,24.39
2023-06-17T05:01:40.601Z,24.39
2023-06-17T05:02:40.662Z,24.39
2023-06-17T05:03:40.670Z,24.39
2023-06-17T05:04:40.583Z,24.40
2023-06-17T05:05:40.575Z,24.40
2023-06-17T05:06:40.574Z,24.39
2023-06-17T05:07:40.564Z,24.39
2023-06-17T05:08:40.547Z,24.39
2023-06-17T05:09:40.548Z,24.39
2023-06-17T05:10:40.558Z,24.39
2023-06-17T05:11:39.543Z,24.39
2023-06-17T05:12:40.528Z,24.39
2023-06-17T05:13:40.517Z,24.40
2023-06-17T05:14:40.538Z,24.40
2023-06-17T05:15:40.500Z,24.39
2023-06-17T05:16:40.554Z,24.40
2023-06-17T05:17:41.448Z,24.40
2023-06-17T05:18:40.518Z,24.39
2023-06-17T05:19:40.487Z,24.40
2023-06-17T05:20:40.475Z,24.39
2023-06-17T05:21:40.464Z,24.41
2023-06-17T05:22:40.482Z,24.40
2023-06-17T05:23:40.456Z,24.41
2023-06-17T05:24:40.588Z,24.41
2023-06-17T05:25:39.454Z,24.41
2023-06-17T05:26:40.457Z,24.42
2023-06-17T05:27:40.451Z,24.41
2023-06-17T05:28:39.449Z,24.41
2023-06-17T05:29:40.627Z,24.41
2023-06-17T05:30:40.484Z,24.42
2023-06-17T05:31:40.401Z,24.42
2023-06-17T05:32:40.490Z,24.42
2023-06-17T05:33:40.422Z,24.42
2023-06-17T05:34:40.404Z,24.42
2023-06-17T05:35:40.385Z,24.42
2023-06-17T05:36:40.376Z,24.42
2023-06-17T05:37:40.381Z,24.42
2023-06-17T05:38:40.361Z,24.42
2023-06-17T05:39:40.361Z,24.42
2023-06-17T05:40:40.350Z,24.42
2023-06-17T05:41:39.333Z,24.42
2023-06-17T05:42:39.338Z,24.43
2023-06-17T05:43:39.347Z,24.42
2023-06-17T05:44:39.347Z,24.43
2023-06-17T05:45:40.327Z,24.43
2023-06-17T05:46:40.371Z,24.43
2023-06-17T05:47:39.337Z,24.44
2023-06-17T05:48:40.298Z,24.44
2023-06-17T05:49:40.326Z,24.44
2023-06-17T05:50:40.279Z,24.44
2023-06-17T05:51:40.287Z,24.44
2023-06-17T05:52:40.282Z,24.44
2023-06-17T05:53:39.271Z,24.44
2023-06-17T05:54:40.269Z,24.44
2023-06-17T05:55:40.262Z,24.45
2023-06-17T05:56:39.255Z,24.45
2023-06-17T05:57:39.236Z,24.46
2023-06-17T05:58:40.238Z,24.45
2023-06-17T05:59:39.214Z,24.46
2023-06-17T06:00:39.234Z,24.46
2023-06-17T06:01:39.310Z,24.46
2023-06-17T06:02:40.373Z,24.45
2023-06-17T06:03:40.340Z,24.46
2023-06-17T06:04:40.355Z,24.47
2023-06-17T06:05:40.388Z,24.47
2023-06-17T06:06:40.435Z,24.46
2023-06-17T06:07:40.450Z,24.47
2023-06-17T06:08:40.489Z,24.48
2023-06-17T06:09:40.498Z,24.48
2023-06-17T06:10:40.544Z,24.48
2023-06-17T06:11:40.566Z,24.48
2023-06-17T06:12:40.602Z,24.48
2023-06-17T06:13:40.679Z,24.48
2023-06-17T06:14:39.704Z,24.49
2023-06-17T06:15:40.759Z,24.49
2023-06-17T06:16:40.855Z,24.49
2023-06-17T06:17:40.875Z,24.49
2023-06-17T06:18:40.966Z,24.49
2023-06-17T06:19:40.981Z,24.50
2023-06-17T06:20:41.039Z,24.50
2023-06-17T06:21:41.113Z,24.51
2023-06-17T06:22:41.160Z,24.50
2023-06-17T06:23:41.258Z,24.51
2023-06-17T06:24:41.406Z,24.51
2023-06-17T06:25:41.380Z,24.52
2023-06-17T06:26:41.427Z,24.52
2023-06-17T06:27:40.472Z,24.52
2023-06-17T06:28:41.588Z,24.53
2023-06-17T06:29:41.594Z,24.53
2023-06-17T06:30:41.642Z,24.53
2023-06-17T06:31:41.719Z,24.54
2023-06-17T06:32:40.815Z,24.55
2023-06-17T06:33:41.834Z,24.55
2023-06-17T06:34:41.908Z,24.55
2023-06-17T06:35:41.953Z,24.56
2023-06-17T06:36:40.996Z,24.55
2023-06-17T06:37:42.064Z,24.56
2023-06-17T06:38:41.119Z,24.56
2023-06-17T06:39:42.183Z,24.57
2023-06-17T06:40:42.204Z,24.58
2023-06-17T06:41:42.283Z,24.58
2023-06-17T06:42:42.327Z,24.58
2023-06-17T06:43:41.432Z,24.58
2023-06-17T06:44:42.442Z,24.59
2023-06-17T06:45:42.559Z,24.59
2023-06-17T06:46:41.562Z,24.60
2023-06-17T06:47:42.654Z,24.60
2023-06-17T06:48:42.655Z,24.60
2023-06-17T06:49:42.713Z,24.60
2023-06-17T06:50:42.794Z,24.61
2023-06-17T06:51:42.830Z,24.61
2023-06-17T06:52:41.882Z,24.62
2023-06-17T06:53:42.934Z,24.61
2023-06-17T06:54:43.008Z,24.63
2023-06-17T06:55:43.035Z,24.62
2023-06-17T06:56:43.106Z,24.63
2023-06-17T06:57:43.145Z,24.64
2023-06-17T06:58:43.227Z,24.64
2023-06-17T06:59:43.267Z,24.64
2023-06-17T07:00:43.311Z,24.64
2023-06-17T07:01:43.397Z,24.66
2023-06-17T07:02:43.489Z,24.66
2023-06-17T07:03:43.495Z,24.67
2023-06-17T07:04:43.608Z,24.67
2023-06-17T07:05:42.584Z,24.67
2023-06-17T07:06:43.673Z,24.68
2023-06-17T07:07:43.706Z,24.68
2023-06-17T07:08:43.758Z,24.69
2023-06-17T07:09:43.810Z,24.69
2023-06-17T07:10:43.854Z,24.69
2023-06-17T07:11:43.903Z,24.70
2023-06-17T07:12:42.960Z,24.70
2023-06-17T07:13:44.020Z,24.71
2023-06-17T07:14:44.057Z,24.71
2023-06-17T07:15:44.095Z,24.71
2023-06-17T07:16:43.208Z,24.71
2023-06-17T07:17:44.231Z,24.72
2023-06-17T07:18:44.290Z,24.72
2023-06-17T07:19:44.325Z,24.72
2023-06-17T07:20:44.402Z,24.74
2023-06-17T07:21:44.417Z,24.73
2023-06-17T07:22:44.534Z,24.73
2023-06-17T07:23:44.526Z,24.74
2023-06-17T07:24:44.597Z,24.74
2023-06-17T07:25:44.642Z,24.74
2023-06-17T07:26:44.703Z,24.75
2023-06-17T07:27:43.753Z,24.75
2023-06-17T07:28:43.829Z,24.76
2023-06-17T07:29:44.861Z,24.76
2023-06-17T07:30:43.964Z,24.76
2023-06-17T07:31:45.006Z,24.76
2023-06-17T07:32:45.061Z,24.76
2023-06-17T07:33:45.076Z,24.76
2023-06-17T07:34:45.112Z,24.77
2023-06-17T07:35:45.150Z,24.77
2023-06-17T07:36:45.225Z,24.78
2023-06-17T07:37:45.246Z,24.78
2023-06-17T07:38:44.673Z,24.78
2023-06-17T07:39:44.359Z,24.79
2023-06-17T07:40:44.420Z,24.78
2023-06-17T07:41:44.474Z,24.79
2023-06-17T07:42:45.538Z,24.78
2023-06-17T07:43:45.576Z,24.79
2023-06-17T07:44:45.605Z,24.79
2023-06-17T07:45:44.727Z,24.79
2023-06-17T07:46:45.783Z,24.79
2023-06-17T07:47:45.754Z,24.80
2023-06-17T07:48:45.789Z,24.81
2023-06-17T07:49:44.821Z,24.80
2023-06-17T07:50:45.841Z,24.81
2023-06-17T07:51:45.879Z,24.81
2023-06-17T07:52:45.953Z,24.81
2023-06-17T07:53:45.978Z,24.81
2023-06-17T07:54:45.061Z,24.82
2023-06-17T07:55:46.049Z,24.82
2023-06-17T07:56:45.071Z,24.83
2023-06-17T07:57:46.139Z,24.83
2023-06-17T07:58:45.214Z,24.83
2023-06-17T07:59:45.203Z,24.83
2023-06-17T08:00:46.231Z,24.83
2023-06-17T08:01:46.363Z,24.83
2023-06-17T08:02:46.398Z,24.83
2023-06-17T08:03:46.436Z,24.84
2023-06-17T08:04:46.402Z,24.84
2023-06-17T08:05:46.418Z,24.84
2023-06-17T08:06:46.442Z,24.84
2023-06-17T08:07:46.483Z,24.85
2023-06-17T08:08:46.549Z,24.86
2023-06-17T08:09:45.539Z,24.85
2023-06-17T08:10:46.611Z,24.86
2023-06-17T08:11:46.616Z,24.86
2023-06-17T08:12:46.667Z,24.86
2023-06-17T08:13:46.748Z,24.86
2023-06-17T08:14:46.745Z,24.87
2023-06-17T08:15:45.790Z,24.86
2023-06-17T08:16:46.919Z,24.87
2023-06-17T08:17:46.926Z,24.88
2023-06-17T08:18:46.887Z,24.88
2023-06-17T08:19:46.929Z,24.87
2023-06-17T08:20:46.966Z,24.88
2023-06-17T08:21:47.020Z,24.87
2023-06-17T08:22:46.046Z,24.87
2023-06-17T08:23:47.098Z,24.88
2023-06-17T08:24:47.114Z,24.88
2023-06-17T08:25:47.198Z,24.89
2023-06-17T08:26:47.237Z,24.89
2023-06-17T08:27:47.222Z,24.89
2023-06-17T08:28:46.284Z,24.89
2023-06-17T08:29:47.312Z,24.88
2023-06-17T08:30:47.342Z,24.89
2023-06-17T08:31:47.363Z,24.89
2023-06-17T08:32:47.425Z,24.90
2023-06-17T08:33:47.470Z,24.90
2023-06-17T08:34:47.487Z,24.90
2023-06-17T08:35:47.526Z,24.90
2023-06-17T08:36:46.613Z,24.90
2023-06-17T08:37:46.605Z,24.91
2023-06-17T08:38:46.649Z,24.91
2023-06-17T08:39:47.668Z,24.92
2023-06-17T08:40:47.703Z,24.91
2023-06-17T08:41:47.740Z,24.92
2023-06-17T08:42:46.836Z,24.91
2023-06-17T08:43:47.841Z,24.91
2023-06-17T08:44:46.851Z,24.91
2023-06-17T08:45:47.934Z,24.92
2023-06-17T08:46:47.933Z,24.92
2023-06-17T08:47:47.075Z,24.91
2023-06-17T08:48:48.004Z,24.92
2023-06-17T08:49:48.044Z,24.92
2023-06-17T08:50:48.089Z,24.92
2023-06-17T08:51:48.106Z,24.92
2023-06-17T08:52:48.149Z,24.92
2023-06-17T08:53:48.201Z,24.92
2023-06-17T08:54:48.223Z,24.92
2023-06-17T08:55:48.267Z,24.93
2023-06-17T08:56:48.315Z,24.93
2023-06-17T08:57:48.348Z,24.93
2023-06-17T08:58:48.413Z,24.93
2023-06-17T08:59:47.427Z,24.93
2023-06-17T09:00:48.504Z,24.93
2023-06-17T09:01:48.502Z,24.94
2023-06-17T09:02:48.595Z,24.94
2023-06-17T09:03:47.588Z,24.94
2023-06-17T09:04:48.665Z,24.94
2023-06-17T09:05:48.659Z,24.93
2023-06-17T09:06:47.693Z,24.94
2023-06-17T09:07:48.743Z,24.94
2023-06-17T09:08:48.774Z,24.95
2023-06-17T09:09:48.812Z,24.95
2023-06-17T09:10:48.837Z,24.95
2023-06-17T09:11:49.859Z,24.95
2023-06-17T09:12:48.894Z,24.94
2023-06-17T09:13:48.875Z,24.95
2023-06-17T09:14:48.879Z,24.96
2023-06-17T09:15:47.847Z,24.95
2023-06-17T09:16:48.859Z,24.96
2023-06-17T09:17:49.001Z,24.96
2023-06-17T09:18:48.833Z,24.96
2023-06-17T09:19:48.811Z,24.96
2023-06-17T09:20:47.808Z,24.96
2023-06-17T09:21:48.846Z,24.96
2023-06-17T09:22:47.804Z,24.96
2023-06-17T09:23:48.891Z,24.96
2023-06-17T09:24:48.792Z,24.96
2023-06-17T09:25:48.787Z,24.96
2023-06-17T09:26:48.771Z,24.96
2023-06-17T09:28:05.399Z,24.97
2023-06-17T09:28:48.755Z,24.95
2023-06-17T09:29:47.740Z,24.96
2023-06-17T09:30:48.763Z,24.96
2023-06-17T09:31:48.724Z,24.96
2023-06-17T09:32:48.761Z,24.97
2023-06-17T09:33:48.725Z,24.97
2023-06-17T09:34:48.715Z,24.96
2023-06-17T09:35:48.761Z,24.96
2023-06-17T09:36:48.705Z,24.97
2023-06-17T09:38:02.679Z,24.97
2023-06-17T09:38:48.702Z,24.96
2023-06-17T09:39:48.687Z,24.96
2023-06-17T09:40:47.685Z,24.97
2023-06-17T09:41:48.662Z,24.97
2023-06-17T09:42:48.654Z,24.97
2023-06-17T09:43:47.658Z,24.98
2023-06-17T09:44:48.648Z,24.99
2023-06-17T09:45:48.666Z,24.98
2023-06-17T09:46:48.681Z,24.98
2023-06-17T09:47:48.666Z,24.98
2023-06-17T09:48:48.616Z,24.98
2023-06-17T09:49:48.603Z,24.98
2023-06-17T09:50:47.618Z,24.97
2023-06-17T09:51:47.604Z,24.98
2023-06-17T09:52:48.616Z,24.98
2023-06-17T09:53:48.611Z,24.99
2023-06-17T09:54:48.582Z,24.99
2023-06-17T09:55:48.558Z,24.99
2023-06-17T09:56:48.567Z,25.00
2023-06-17T09:57:48.553Z,25.00
2023-06-17T09:58:47.555Z,24.99
2023-06-17T09:59:48.555Z,24.99
2023-06-17T10:00:47.543Z,24.99
2023-06-17T10:01:48.604Z,24.99
2023-06-17T10:02:48.623Z,24.99
2023-06-17T10:03:48.586Z,24.99
2023-06-17T10:04:48.502Z,24.99
2023-06-17T10:05:48.488Z,25.00
2023-06-17T10:06:48.507Z,25.00
2023-06-17T10:07:48.476Z,25.00
2023-06-17T10:08:47.480Z,25.00
2023-06-17T10:09:48.458Z,25.01
2023-06-17T10:10:48.480Z,25.01
2023-06-17T10:11:47.452Z,25.01
2023-06-17T10:12:48.456Z,25.01
2023-06-17T10:13:48.444Z,25.01
2023-06-17T10:14:48.440Z,25.02
2023-06-17T10:15:48.480Z,25.01
2023-06-17T10:16:48.492Z,25.01
2023-06-17T10:17:48.571Z,25.01
2023-06-17T10:18:48.601Z,25.01
2023-06-17T10:19:47.618Z,25.02
2023-06-17T10:20:48.651Z,25.01
2023-06-17T10:21:48.727Z,25.02
2023-06-17T10:22:48.720Z,25.01
2023-06-17T10:23:48.841Z,25.01
2023-06-17T10:24:48.809Z,25.02
2023-06-17T10:25:48.838Z,25.02
2023-06-17T10:26:51.014Z,25.02
2023-06-17T10:27:48.882Z,25.01
2023-06-17T10:28:48.850Z,25.01
2023-06-17T10:29:48.854Z,25.01
2023-06-17T10:30:48.837Z,25.01
2023-06-17T10:31:48.844Z,25.02
2023-06-17T10:32:50.968Z,25.02
2023-06-17T10:33:48.822Z,25.01
2023-06-17T10:34:48.831Z,25.03
2023-06-17T10:35:48.814Z,25.02
2023-06-17T10:36:48.797Z,25.02
2023-06-17T10:37:48.796Z,25.02
2023-06-17T10:38:50.530Z,25.02
2023-06-17T10:39:48.764Z,25.03
2023-06-17T10:40:48.832Z,25.03
2023-06-17T10:41:48.753Z,25.03
2023-06-17T10:42:48.757Z,25.02
2023-06-17T10:43:48.768Z,25.02
2023-06-17T10:44:50.164Z,25.03
2023-06-17T10:45:48.764Z,25.01
2023-06-17T10:46:48.722Z,25.02
2023-06-17T10:47:48.732Z,25.02
2023-06-17T10:48:48.733Z,25.02
2023-06-17T10:49:48.716Z,25.02
2023-06-17T10:50:51.107Z,25.02
2023-06-17T10:52:47.675Z,25.02
2023-06-17T10:53:48.711Z,25.02
2023-06-17T10:54:48.672Z,25.03
2023-06-17T10:55:48.664Z,25.03
2023-06-17T10:56:48.650Z,25.03
2023-06-17T10:57:48.653Z,25.03
2023-06-17T10:58:48.661Z,25.03
2023-06-17T10:59:48.641Z,25.03
2023-06-17T11:00:48.628Z,25.03
2023-06-17T11:01:49.910Z,25.04
2023-06-17T11:02:48.750Z,25.04
2023-06-17T11:03:48.687Z,25.04
2023-06-17T11:04:48.611Z,25.04
2023-06-17T11:05:48.627Z,25.03
2023-06-17T11:06:48.702Z,25.03
2023-06-17T11:07:48.713Z,25.04
2023-06-17T11:08:47.740Z,25.03
2023-06-17T11:09:47.888Z,25.02
2023-06-17T11:10:48.849Z,25.03
2023-06-17T11:11:47.888Z,25.03
2023-06-17T11:12:49.748Z,25.02
2023-06-17T11:13:48.868Z,25.03
2023-06-17T11:14:47.872Z,25.03
2023-06-17T11:15:48.843Z,25.03
2023-06-17T11:16:47.888Z,25.03
2023-06-17T11:17:47.867Z,25.03
2023-06-17T11:18:50.121Z,25.04
2023-06-17T11:19:48.834Z,25.02
2023-06-17T11:20:48.851Z,25.03
2023-06-17T11:21:47.804Z,25.03
2023-06-17T11:22:48.841Z,25.03
2023-06-17T11:23:48.841Z,25.02
2023-06-17T11:24:48.806Z,25.03
2023-06-17T11:25:48.897Z,25.03
2023-06-17T11:26:47.786Z,25.03
2023-06-17T11:27:48.759Z,25.04
2023-06-17T11:28:48.758Z,25.03
2023-06-17T11:29:48.763Z,25.04
2023-06-17T11:30:48.773Z,25.04
2023-06-17T11:31:48.765Z,25.04
2023-06-17T11:32:48.804Z,25.04
2023-06-17T11:33:48.738Z,25.04
2023-06-17T11:34:47.739Z,25.04
2023-06-17T11:35:48.716Z,25.04
2023-06-17T11:36:48.714Z,25.04
2023-06-17T11:37:48.712Z,25.04
2023-06-17T11:38:48.725Z,25.04
2023-06-17T11:39:48.740Z,25.04
2023-06-17T11:40:47.681Z,25.04
2023-06-17T11:41:48.677Z,25.04
2023-06-17T11:42:48.667Z,25.05
2023-06-17T11:43:48.653Z,25.04
2023-06-17T11:44:47.676Z,25.04
2023-06-17T11:45:48.649Z,25.05
2023-06-17T11:46:48.660Z,25.05
2023-06-17T11:47:48.669Z,25.05
2023-06-17T11:48:48.621Z,25.04
2023-06-17T11:49:47.614Z,25.04
2023-06-17T11:50:48.611Z,25.04
2023-06-17T11:51:48.605Z,25.04
2023-06-17T11:52:47.594Z,25.05
2023-06-17T11:53:48.586Z,25.04
2023-06-17T11:54:48.634Z,25.04
2023-06-17T11:55:48.570Z,25.05
2023-06-17T11:56:48.603Z,25.04
2023-06-17T11:57:48.647Z,25.04
2023-06-17T11:58:48.689Z,25.04
2023-06-17T11:59:48.725Z,25.05
2023-06-17T12:00:47.736Z,25.05
2023-06-17T12:01:48.812Z,25.05
2023-06-17T12:02:48.939Z,25.05
2023-06-17T12:03:47.922Z,25.05
2023-06-17T12:04:48.939Z,25.05
2023-06-17T12:05:47.937Z,25.06
2023-06-17T12:06:48.969Z,25.05
2023-06-17T12:07:48.002Z,25.06
2023-06-17T12:08:49.033Z,25.05
2023-06-17T12:09:49.068Z,25.05
2023-06-17T12:10:49.129Z,25.05
2023-06-17T12:11:49.132Z,25.05
2023-06-17T12:12:48.166Z,25.05
2023-06-17T12:13:48.208Z,25.05
2023-06-17T12:14:49.246Z,25.05
2023-06-17T12:15:49.254Z,25.05
2023-06-17T12:16:49.289Z,25.05
2023-06-17T12:17:49.384Z,25.04
2023-06-17T12:18:49.365Z,25.04
2023-06-17T12:19:49.423Z,25.05
2023-06-17T12:20:49.447Z,25.05
2023-06-17T12:21:49.446Z,25.05
2023-06-17T12:22:49.494Z,25.05
2023-06-17T12:23:48.508Z,25.05
2023-06-17T12:24:49.541Z,25.06
2023-06-17T12:25:49.577Z,25.06
2023-06-17T12:26:49.634Z,25.06
2023-06-17T12:27:49.660Z,25.05
2023-06-17T12:28:49.688Z,25.05
2023-06-17T12:29:48.717Z,25.05
2023-06-17T12:30:49.733Z,25.05
2023-06-17T12:31:49.787Z,25.05
2023-06-17T12:32:49.842Z,25.05
2023-06-17T12:33:49.852Z,25.05
2023-06-17T12:34:49.888Z,25.05
2023-06-17T12:35:49.908Z,25.05
2023-06-17T12:36:49.941Z,25.05
2023-06-17T12:37:48.979Z,25.05
2023-06-17T12:38:50.028Z,25.05
2023-06-17T12:39:50.050Z,25.05
2023-06-17T12:40:50.092Z,25.06
2023-06-17T12:41:50.126Z,25.05
2023-06-17T12:42:49.173Z,25.05
2023-06-17T12:43:50.211Z,25.05
2023-06-17T12:44:50.227Z,25.06
2023-06-17T12:45:49.313Z,25.06
2023-06-17T12:46:50.297Z,25.05
2023-06-17T12:47:49.370Z,25.05
2023-06-17T12:48:50.386Z,25.05
2023-06-17T12:49:50.424Z,25.06
2023-06-17T12:50:50.453Z,25.06
2023-06-17T12:51:50.480Z,25.05
2023-06-17T12:52:50.525Z,25.06
2023-06-17T12:53:50.556Z,25.05